Time;durP1;ratioP1;P1;durP2;ratioP2;P2;SDS_P1;SDS_P2;PMS_P1;PMS_P2;Temp;Humidity;BMP_temperature;BMP_pressure;BME280_temperature;BME280_humidity;BME280_pressure;Samples;Min_cycle;Max_cycle;Signal;HPM_P1;HPM_P2
2023/06/12 00:00:43;;;;;;;21.25;11.18;;;;;;;22.07;41.83;101390.88;5051424;28;20025;-56
2023/06/12 00:03:09;;;;;;;19.27;10.90;;;;;;;22.01;41.79;101388.75;5051355;28;20048;-57
2023/06/12 00:05:34;;;;;;;20.40;10.85;;;;;;;21.96;41.88;101387.84;5054876;28;20040;-58
2023/06/12 00:08:00;;;;;;;19.48;11.13;;;;;;;21.94;41.97;101392.22;5055294;28;20021;-57
2023/06/12 00:10:26;;;;;;;19.88;11.25;;;;;;;21.86;42.61;101380.00;5055311;28;20021;-57
2023/06/12 00:12:51;;;;;;;21.88;11.43;;;;;;;21.86;42.36;101385.63;5055146;28;20040;-57
2023/06/12 00:15:17;;;;;;;19.80;11.32;;;;;;;21.79;42.71;101388.28;5055036;28;20477;-58
2023/06/12 00:17:42;;;;;;;19.17;11.18;;;;;;;21.74;42.51;101385.75;5055095;28;20468;-56
2023/06/12 00:20:08;;;;;;;19.38;11.43;;;;;;;21.66;42.86;101387.63;5055040;28;20025;-57
2023/06/12 00:22:39;;;;;;;20.23;11.65;;;;;;;21.59;42.81;101384.63;5054738;28;20186;-56
2023/06/12 00:25:06;;;;;;;20.20;11.43;;;;;;;21.54;42.82;101388.53;5055093;28;20741;-57
2023/06/12 00:27:31;;;;;;;20.00;11.77;;;;;;;21.58;43.07;101388.63;5054840;28;20101;-57
2023/06/12 00:29:57;;;;;;;20.35;11.73;;;;;;;21.49;43.11;101389.63;5053479;28;20393;-54
2023/06/12 00:32:22;;;;;;;20.92;11.88;;;;;;;21.43;43.46;101388.31;5052840;28;20036;-55
2023/06/12 00:34:48;;;;;;;20.38;11.93;;;;;;;21.35;44.03;101383.69;5054010;28;20029;-56
2023/06/12 00:37:14;;;;;;;19.95;11.65;;;;;;;21.27;44.07;101381.91;5054675;28;20453;-56
2023/06/12 00:39:39;;;;;;;19.85;12.15;;;;;;;21.22;44.32;101385.00;5054717;28;20032;-57
2023/06/12 00:42:05;;;;;;;19.10;11.57;;;;;;;21.17;44.49;101386.94;5054285;28;20354;-57
2023/06/12 00:44:31;;;;;;;19.25;11.50;;;;;;;21.10;44.82;101385.94;5054711;28;20021;-56
2023/06/12 00:46:56;;;;;;;20.10;11.82;;;;;;;21.04;45.09;101383.41;5054457;28;20052;-57
2023/06/12 00:49:22;;;;;;;20.25;12.18;;;;;;;21.03;45.11;101383.75;5054528;28;20039;-56
2023/06/12 00:51:48;;;;;;;20.23;11.82;;;;;;;20.93;45.29;101387.13;5054419;28;20032;-56
2023/06/12 00:54:14;;;;;;;20.75;12.38;;;;;;;20.97;45.39;101390.84;5054423;28;20461;-56
2023/06/12 00:56:40;;;;;;;19.33;12.13;;;;;;;20.87;45.87;101383.81;5054452;28;20029;-56
2023/06/12 00:59:05;;;;;;;21.13;12.05;;;;;;;20.81;46.00;101386.06;5054164;28;20023;-55
2023/06/12 01:01:31;;;;;;;19.05;11.35;;;;;;;20.80;45.89;101381.63;5054117;28;20496;-58
2023/06/12 01:03:57;;;;;;;18.30;11.10;;;;;;;20.78;46.14;101386.00;5054330;28;20021;-57
2023/06/12 01:06:33;;;;;;;20.52;13.00;;;;;;;20.71;45.90;101383.78;5054050;28;20033;-57
2023/06/12 01:09:09;;;;;;;21.35;12.00;;;;;;;20.65;46.69;101373.97;5054167;28;20036;-57
2023/06/12 01:11:36;;;;;;;20.30;12.48;;;;;;;20.64;46.74;101381.59;5054071;28;20032;-57
2023/06/12 01:14:02;;;;;;;20.77;12.77;;;;;;;20.58;46.98;101378.22;5054337;28;20414;-57
2023/06/12 01:16:27;;;;;;;20.50;12.75;;;;;;;20.51;47.24;101375.25;5053961;28;20108;-57
2023/06/12 01:18:52;;;;;;;20.00;12.50;;;;;;;20.47;47.38;101377.13;5054022;28;20029;-58
2023/06/12 01:21:22;;;;;;;22.20;12.68;;;;;;;20.44;47.51;101388.28;5054063;28;20124;-57
2023/06/12 01:24:27;;;;;;;21.40;12.18;;;;;;;20.46;46.96;101381.13;5053924;28;20032;-57
2023/06/12 01:27:24;;;;;;;21.13;12.50;;;;;;;20.47;46.67;101390.38;5046312;28;20051;-56
2023/06/12 01:30:27;;;;;;;22.52;12.75;;;;;;;20.36;47.55;101387.25;5053746;28;20041;-57
2023/06/12 01:32:55;;;;;;;21.23;12.70;;;;;;;20.29;48.18;101382.28;5053589;28;20171;-58
2023/06/12 01:35:24;;;;;;;21.00;12.82;;;;;;;20.24;48.21;101394.63;5053608;28;20052;-57
2023/06/12 01:38:01;;;;;;;20.60;12.93;;;;;;;20.18;48.70;101384.78;5052247;28;20041;-57
2023/06/12 01:40:28;;;;;;;21.60;12.90;;;;;;;20.13;48.74;101381.44;5053589;28;20020;-57
2023/06/12 01:42:54;;;;;;;21.17;12.80;;;;;;;20.09;48.87;101393.41;5053351;28;20033;-57
2023/06/12 01:45:19;;;;;;;20.75;12.38;;;;;;;20.00;49.24;101381.50;5053415;28;20042;-58
2023/06/12 01:47:44;;;;;;;21.33;12.57;;;;;;;19.97;49.20;101384.22;5053369;28;20021;-57
2023/06/12 01:50:12;;;;;;;21.15;12.25;;;;;;;19.90;49.64;101374.41;5053141;28;20033;-57
2023/06/12 01:52:38;;;;;;;22.90;12.65;;;;;;;19.87;49.50;101375.13;5053250;28;20029;-57
2023/06/12 01:55:04;;;;;;;21.38;12.35;;;;;;;19.85;49.73;101380.28;5053282;28;20021;-57
2023/06/12 01:57:32;;;;;;;21.10;12.30;;;;;;;19.84;49.72;101387.03;5053071;28;20032;-57
2023/06/12 01:59:59;;;;;;;20.52;12.60;;;;;;;19.78;49.97;101386.47;5053313;28;20025;-57
2023/06/12 02:02:26;;;;;;;20.55;13.07;;;;;;;19.80;49.83;101384.13;5053504;28;20082;-57
2023/06/12 02:04:51;;;;;;;20.60;12.20;;;;;;;19.79;50.14;101382.50;5053375;28;20029;-56
2023/06/12 02:07:17;;;;;;;22.80;12.40;;;;;;;19.70;50.25;101381.81;5052950;28;20029;-56
2023/06/12 02:09:42;;;;;;;20.80;12.88;;;;;;;19.66;50.29;101386.50;5052968;28;20373;-57
2023/06/12 02:12:08;;;;;;;21.05;12.45;;;;;;;19.62;50.64;101383.59;5052756;28;20087;-56
2023/06/12 02:14:33;;;;;;;22.15;12.68;;;;;;;19.58;50.81;101391.09;5052526;28;20035;-56
2023/06/12 02:17:02;;;;;;;21.13;12.70;;;;;;;19.56;50.67;101385.03;5052503;28;20406;-56
2023/06/12 02:19:28;;;;;;;21.02;13.02;;;;;;;19.49;51.18;101377.19;5052662;28;20037;-57
2023/06/12 02:21:57;;;;;;;20.75;12.85;;;;;;;19.49;50.74;101382.00;5052576;28;20049;-57
2023/06/12 02:24:29;;;;;;;20.95;13.00;;;;;;;19.48;50.79;101386.78;5052644;28;20059;-57
2023/06/12 02:26:55;;;;;;;21.05;12.55;;;;;;;19.48;51.19;101380.38;5051946;28;20044;-58
2023/06/12 02:29:21;;;;;;;22.50;13.63;;;;;;;19.40;51.37;101378.53;5052483;28;20338;-58
2023/06/12 02:31:46;;;;;;;21.23;13.15;;;;;;;19.34;51.66;101383.56;5048758;28;20033;-57
2023/06/12 02:34:11;;;;;;;22.27;13.15;;;;;;;19.35;51.82;101373.97;5052334;28;20111;-58
2023/06/12 02:36:42;;;;;;;22.02;12.90;;;;;;;19.26;52.14;101376.91;5052341;28;20021;-58
2023/06/12 02:39:12;;;;;;;20.25;12.70;;;;;;;19.26;52.03;101374.09;5050772;28;20113;-58
2023/06/12 02:41:39;;;;;;;20.55;12.65;;;;;;;19.18;52.37;101370.25;5052739;28;20408;-57
2023/06/12 02:44:05;;;;;;;21.40;13.13;;;;;;;19.18;52.65;101375.84;5052354;28;20361;-58
2023/06/12 02:46:30;;;;;;;22.17;13.60;;;;;;;19.09;53.12;101380.75;5052297;28;20025;-57
2023/06/12 02:48:55;;;;;;;21.75;13.23;;;;;;;18.99;53.15;101375.63;5052177;28;20103;-58
2023/06/12 02:51:20;;;;;;;21.40;13.30;;;;;;;19.01;53.01;101381.72;5052284;28;20040;-58
2023/06/12 02:53:46;;;;;;;22.00;12.90;;;;;;;18.98;53.24;101374.03;5052067;28;20496;-58
2023/06/12 02:56:11;;;;;;;20.77;12.98;;;;;;;18.94;53.67;101375.88;5052146;28;20029;-57
2023/06/12 02:58:36;;;;;;;22.50;13.57;;;;;;;18.95;53.37;101374.72;5052076;28;20036;-59
2023/06/12 03:01:04;;;;;;;24.33;13.73;;;;;;;18.90;53.61;101380.50;5052182;28;20053;-58
2023/06/12 03:03:29;;;;;;;22.73;13.57;;;;;;;18.89;53.22;101381.69;5051809;28;20044;-57
2023/06/12 03:05:55;;;;;;;22.10;12.75;;;;;;;18.83;53.91;101370.72;5051825;28;20025;-56
2023/06/12 03:08:20;;;;;;;21.00;13.07;;;;;;;18.83;54.14;101378.31;5051750;28;20474;-56
2023/06/12 03:10:45;;;;;;;22.65;13.10;;;;;;;18.78;54.28;101370.13;5051671;28;20059;-56
2023/06/12 03:13:12;;;;;;;21.73;13.40;;;;;;;18.81;54.06;101377.84;5051673;28;20029;-57
2023/06/12 03:15:37;;;;;;;22.60;13.40;;;;;;;18.70;54.80;101386.69;5051657;28;20078;-56
2023/06/12 03:18:03;;;;;;;21.80;13.60;;;;;;;18.70;54.73;101383.09;5051507;28;20025;-58
2023/06/12 03:20:28;;;;;;;22.10;13.63;;;;;;;18.68;54.61;101385.41;5051465;28;20107;-57
2023/06/12 03:22:53;;;;;;;21.45;13.68;;;;;;;18.64;55.15;101387.28;5051247;28;20136;-55
2023/06/12 03:25:19;;;;;;;21.95;13.68;;;;;;;18.61;55.46;101380.38;5051393;28;20472;-57
2023/06/12 03:27:48;;;;;;;20.75;14.07;;;;;;;18.60;55.65;101384.34;5051668;28;20025;-57
2023/06/12 03:30:14;;;;;;;22.05;13.30;;;;;;;18.60;55.50;101383.53;5049503;28;20036;-56
2023/06/12 03:32:40;;;;;;;21.10;13.18;;;;;;;18.61;55.46;101380.38;5050195;28;20029;-56
2023/06/12 03:35:06;;;;;;;20.95;13.43;;;;;;;18.56;55.83;101377.81;5051366;28;20483;-57
2023/06/12 03:37:32;;;;;;;21.75;13.50;;;;;;;18.55;55.85;101385.41;5051455;28;20055;-57
2023/06/12 03:39:57;;;;;;;20.95;13.43;;;;;;;18.56;55.47;101383.44;5055877;28;20036;-58
2023/06/12 03:42:22;;;;;;;21.77;14.18;;;;;;;18.57;55.79;101385.03;5055626;28;20036;-58
2023/06/12 03:44:48;;;;;;;22.10;13.55;;;;;;;18.62;55.65;101378.38;5055644;28;20082;-58
2023/06/12 03:47:14;;;;;;;23.48;13.07;;;;;;;18.86;55.66;101380.41;5055714;28;20089;-58
2023/06/12 03:49:39;;;;;;;22.30;13.65;;;;;;;19.33;53.72;101387.53;5055384;28;20029;-58
2023/06/12 03:52:05;;;;;;;22.75;13.15;;;;;;;19.69;53.10;101391.41;5055068;28;20021;-57
2023/06/12 03:54:31;;;;;;;22.10;13.50;;;;;;;19.78;52.51;101382.84;5055135;28;20036;-57
2023/06/12 03:56:56;;;;;;;20.50;13.18;;;;;;;19.67;52.45;101390.16;5055383;28;20017;-57
2023/06/12 03:59:21;;;;;;;23.20;13.88;;;;;;;19.45;53.09;101390.31;5055345;28;20060;-56
2023/06/12 04:01:48;;;;;;;22.88;13.60;;;;;;;19.31;53.51;101399.13;5055323;28;20147;-57
2023/06/12 04:04:14;;;;;;;22.52;13.07;;;;;;;19.15;54.28;101393.41;5055343;28;20036;-57
2023/06/12 04:06:41;;;;;;;22.48;13.23;;;;;;;19.07;54.34;101405.56;5055083;28;20112;-57
2023/06/12 04:09:12;;;;;;;21.90;12.95;;;;;;;18.98;54.53;101405.66;5053906;28;20017;-57
2023/06/12 04:11:40;;;;;;;20.13;12.75;;;;;;;18.88;55.19;101411.69;5055105;28;20090;-56
2023/06/12 04:14:07;;;;;;;22.27;13.38;;;;;;;18.83;55.22;101415.56;5055120;28;20039;-57
2023/06/12 04:16:33;;;;;;;24.88;13.55;;;;;;;18.80;55.13;101416.25;5053660;28;20021;-58
2023/06/12 04:19:03;;;;;;;21.75;13.18;;;;;;;18.77;55.60;101422.56;5054793;28;20048;-58
2023/06/12 04:21:32;;;;;;;21.50;13.60;;;;;;;18.78;55.67;101420.56;5055063;28;20045;-57
2023/06/12 04:24:02;;;;;;;22.23;13.50;;;;;;;18.74;55.75;101423.25;5055103;28;20036;-57
2023/06/12 04:26:27;;;;;;;22.88;13.82;;;;;;;18.77;56.02;101430.97;5055132;28;20052;-57
2023/06/12 04:28:54;;;;;;;23.58;14.35;;;;;;;18.76;56.26;101422.91;5054930;28;20041;-56
2023/06/12 04:31:20;;;;;;;22.98;14.30;;;;;;;18.75;56.01;101429.69;5052032;28;20103;-57
2023/06/12 04:33:46;;;;;;;22.40;14.85;;;;;;;18.73;56.38;101424.41;5054479;28;20124;-56
2023/06/12 04:36:17;;;;;;;24.05;14.48;;;;;;;18.75;55.80;101427.69;5054678;28;20029;-57
2023/06/12 04:38:42;;;;;;;22.52;15.02;;;;;;;18.74;55.78;101422.44;5054727;28;20442;-57
2023/06/12 04:41:07;;;;;;;23.33;14.98;;;;;;;18.73;55.55;101420.81;5054324;28;20036;-56
2023/06/12 04:43:33;;;;;;;23.27;14.25;;;;;;;18.79;55.41;101417.44;5054543;28;20035;-56
2023/06/12 04:45:58;;;;;;;23.10;13.68;;;;;;;18.80;55.58;101416.25;5054542;28;20035;-57
2023/06/12 04:48:23;;;;;;;25.65;14.23;;;;;;;18.95;55.24;101425.19;5054446;28;20177;-57
2023/06/12 04:50:54;;;;;;;25.30;14.70;;;;;;;19.06;54.89;101417.09;5053589;28;20029;-57
2023/06/12 04:53:27;;;;;;;24.92;14.27;;;;;;;19.10;54.40;101410.44;5054478;28;20053;-56
2023/06/12 04:55:54;;;;;;;25.70;14.65;;;;;;;19.18;54.88;101415.09;5054476;28;20103;-56
2023/06/12 04:58:20;;;;;;;26.75;14.90;;;;;;;19.24;54.30;101414.91;5054435;28;20025;-57
2023/06/12 05:00:47;;;;;;;25.02;14.13;;;;;;;19.31;53.73;101409.50;5053947;28;20412;-57
2023/06/12 05:03:16;;;;;;;24.13;13.85;;;;;;;19.40;53.39;101417.81;5054339;28;20570;-57
2023/06/12 05:05:42;;;;;;;23.70;14.10;;;;;;;19.38;53.60;101418.13;5054184;28;20033;-57
2023/06/12 05:08:08;;;;;;;23.65;14.07;;;;;;;19.46;53.60;101419.97;5054077;28;20025;-56
2023/06/12 05:10:33;;;;;;;23.30;14.00;;;;;;;19.55;53.17;101411.44;5054159;28;20024;-57
2023/06/12 05:12:58;;;;;;;23.90;13.93;;;;;;;19.61;53.37;101426.06;5054028;28;20067;-58
2023/06/12 05:15:24;;;;;;;26.05;13.32;;;;;;;19.74;52.87;101422.03;5053792;28;20115;-57
2023/06/12 05:17:49;;;;;;;23.48;13.80;;;;;;;19.75;52.47;101409.63;5054133;28;20025;-58
2023/06/12 05:20:15;;;;;;;26.15;13.50;;;;;;;19.83;52.45;101421.09;5054012;28;20017;-59
2023/06/12 05:22:41;;;;;;;28.48;14.85;;;;;;;19.90;52.03;101416.50;5053749;28;20045;-59
2023/06/12 05:25:07;;;;;;;26.33;13.88;;;;;;;20.04;52.02;101415.31;5053856;28;20036;-58
2023/06/12 05:27:32;;;;;;;26.50;14.00;;;;;;;20.09;52.04;101418.69;5053908;28;20100;-58
2023/06/12 05:29:57;;;;;;;27.33;13.30;;;;;;;20.19;51.91;101424.97;5052640;28;20052;-57
2023/06/12 05:32:23;;;;;;;27.85;13.48;;;;;;;20.28;51.91;101417.19;5050815;28;20029;-58
2023/06/12 05:34:48;;;;;;;27.77;14.07;;;;;;;20.36;51.92;101416.19;5053636;28;20025;-57
2023/06/12 05:37:13;;;;;;;24.83;13.73;;;;;;;20.37;51.07;101419.81;5053558;28;20417;-58
2023/06/12 05:39:38;;;;;;;23.45;14.30;;;;;;;20.46;50.82;101420.47;5053614;28;20468;-57
2023/06/12 05:42:04;;;;;;;28.65;14.70;;;;;;;20.51;51.18;101410.94;5053633;28;20109;-57
2023/06/12 05:44:30;;;;;;;24.70;14.32;;;;;;;20.61;51.22;101418.03;5053522;28;20028;-57
2023/06/12 05:46:56;;;;;;;24.88;13.63;;;;;;;20.71;51.20;101418.31;5053634;28;20074;-57
2023/06/12 05:49:21;;;;;;;23.30;14.23;;;;;;;20.79;50.82;101416.53;5053409;28;20547;-57
2023/06/12 05:51:47;;;;;;;21.10;13.23;;;;;;;20.91;49.94;101412.81;5051795;28;20410;-57
2023/06/12 05:54:13;;;;;;;25.23;14.88;;;;;;;20.99;49.80;101408.19;5053418;28;20032;-57
2023/06/12 05:56:38;;;;;;;23.00;14.35;;;;;;;20.99;49.08;101411.81;5053109;28;20025;-57
2023/06/12 05:59:03;;;;;;;21.77;14.73;;;;;;;21.06;50.15;101416.00;5053114;28;20070;-57
2023/06/12 06:01:31;;;;;;;22.15;13.82;;;;;;;21.08;49.64;101411.63;5052063;28;20098;-57
2023/06/12 06:03:58;;;;;;;23.30;14.23;;;;;;;21.17;49.79;101414.22;5053185;28;20151;-58
2023/06/12 06:06:23;;;;;;;21.83;13.50;;;;;;;21.26;49.53;101412.03;5053051;28;20071;-57
2023/06/12 06:08:48;;;;;;;24.27;14.35;;;;;;;21.36;49.05;101413.47;5052915;28;20552;-58
2023/06/12 06:11:13;;;;;;;26.35;13.55;;;;;;;21.48;49.09;101413.38;5053020;28;20056;-57
2023/06/12 06:13:41;;;;;;;24.15;13.73;;;;;;;21.55;48.33;101417.50;5052645;28;20028;-59
2023/06/12 06:16:06;;;;;;;23.15;13.27;;;;;;;21.63;47.40;101419.31;5052740;28;20028;-58
2023/06/12 06:18:31;;;;;;;22.40;12.35;;;;;;;21.73;47.58;101420.72;5052817;28;20373;-58
2023/06/12 06:20:57;;;;;;;25.02;13.18;;;;;;;21.82;46.46;101418.53;5051201;28;20057;-59
2023/06/12 06:23:22;;;;;;;26.05;14.50;;;;;;;21.88;45.71;101422.69;5052684;28;20028;-59
2023/06/12 06:25:48;;;;;;;24.45;12.43;;;;;;;21.94;45.76;101420.38;5052699;28;20041;-59
2023/06/12 06:28:14;;;;;;;22.92;12.73;;;;;;;21.98;45.46;101418.44;5052380;28;20037;-59
2023/06/12 06:30:40;;;;;;;21.63;12.60;;;;;;;22.07;44.92;101421.06;5052474;28;20110;-59
2023/06/12 06:33:05;;;;;;;22.50;12.90;;;;;;;22.11;44.83;101428.38;5050024;28;20031;-58
2023/06/12 06:35:30;;;;;;;22.48;12.43;;;;;;;22.18;45.55;101429.72;5051275;28;20067;-59
2023/06/12 06:37:56;;;;;;;23.60;12.27;;;;;;;22.26;45.49;101415.41;5050429;28;20037;-59
2023/06/12 06:40:22;;;;;;;23.90;12.50;;;;;;;22.31;44.61;101419.91;5049774;28;20033;-59
2023/06/12 06:42:47;;;;;;;28.35;13.00;;;;;;;22.42;45.54;101420.13;5049475;28;20417;-59
2023/06/12 06:45:12;;;;;;;23.80;12.57;;;;;;;22.47;44.90;101419.84;5048207;28;20032;-59
2023/06/12 06:47:38;;;;;;;23.48;13.27;;;;;;;22.49;44.69;101425.91;5048991;28;20052;-59
2023/06/12 06:50:03;;;;;;;24.30;13.65;;;;;;;22.49;44.86;101423.06;5048724;28;20024;-58
2023/06/12 06:52:29;;;;;;;22.45;13.20;;;;;;;22.57;45.20;101427.69;5048730;28;20044;-59
2023/06/12 06:54:54;;;;;;;20.83;12.73;;;;;;;22.64;44.37;101426.16;5049210;28;20025;-58
2023/06/12 06:57:22;;;;;;;23.05;13.15;;;;;;;22.76;44.80;101426.00;5049185;28;20515;-58
2023/06/12 06:59:47;;;;;;;22.67;12.75;;;;;;;22.86;44.43;101422.50;5049858;28;20029;-57
2023/06/12 07:02:13;;;;;;;20.90;12.45;;;;;;;22.97;44.47;101424.69;5050062;28;20039;-58
2023/06/12 07:04:38;;;;;;;22.85;12.35;;;;;;;23.08;44.10;101422.88;5051262;28;20021;-59
2023/06/12 07:07:03;;;;;;;21.00;12.38;;;;;;;23.20;43.66;101417.06;5050773;28;20445;-58
2023/06/12 07:09:29;;;;;;;21.08;12.18;;;;;;;23.18;44.04;101421.44;5050865;28;20370;-58
2023/06/12 07:11:55;;;;;;;21.17;12.93;;;;;;;23.17;44.53;101425.44;5050721;28;20037;-59
2023/06/12 07:14:20;;;;;;;21.98;12.50;;;;;;;23.14;44.25;101420.53;5050288;28;20032;-59
2023/06/12 07:16:46;;;;;;;21.55;12.57;;;;;;;23.20;44.62;101422.69;5049280;28;20043;-59
2023/06/12 07:19:11;;;;;;;21.42;13.07;;;;;;;23.30;43.75;101414.78;5050534;28;20177;-59
2023/06/12 07:21:37;;;;;;;22.27;13.32;;;;;;;23.40;43.90;101411.31;5050235;28;20052;-58
2023/06/12 07:24:04;;;;;;;21.23;13.68;;;;;;;23.61;43.77;101407.16;5050637;28;20131;-59
2023/06/12 07:26:29;;;;;;;22.42;13.20;;;;;;;23.65;43.02;101408.00;5050514;28;20457;-59
2023/06/12 07:28:55;;;;;;;21.88;13.43;;;;;;;23.71;42.99;101403.63;5049164;28;20040;-59
2023/06/12 07:31:20;;;;;;;20.92;12.20;;;;;;;23.73;43.39;101408.91;5050378;28;20102;-59
2023/06/12 07:33:46;;;;;;;22.67;12.40;;;;;;;23.92;43.10;101405.09;5050551;28;20029;-59
2023/06/12 07:36:11;;;;;;;19.63;12.25;;;;;;;23.94;43.41;101405.53;5050470;28;20056;-60
2023/06/12 07:38:37;;;;;;;22.55;12.88;;;;;;;23.99;43.26;101408.88;5050500;28;20443;-59
2023/06/12 07:41:02;;;;;;;21.98;13.30;;;;;;;24.02;42.34;101403.66;5050421;28;20117;-59
2023/06/12 07:43:32;;;;;;;20.58;12.75;;;;;;;24.10;42.00;101406.16;5050189;28;20154;-58
2023/06/12 07:45:57;;;;;;;20.42;12.95;;;;;;;24.18;42.15;101411.91;5050552;28;20029;-58
2023/06/12 07:48:23;;;;;;;21.38;12.65;;;;;;;24.31;41.61;101413.25;5050322;28;20033;-58
2023/06/12 07:50:48;;;;;;;21.92;12.43;;;;;;;24.43;41.11;101401.66;5050475;28;20094;-58
2023/06/12 07:53:13;;;;;;;21.45;12.55;;;;;;;24.57;40.85;101409.47;5050385;28;20353;-57
2023/06/12 07:55:39;;;;;;;20.58;12.30;;;;;;;24.70;40.28;101406.41;5050459;28;20033;-59
2023/06/12 07:58:06;;;;;;;21.13;12.88;;;;;;;24.68;40.15;101408.78;5050335;28;20044;-59
2023/06/12 08:00:32;;;;;;;20.92;12.93;;;;;;;24.61;41.34;101412.34;5050693;28;20021;-59
2023/06/12 08:02:59;;;;;;;21.13;12.32;;;;;;;24.61;40.74;101406.69;5050430;28;20035;-59
2023/06/12 08:05:24;;;;;;;21.73;14.25;;;;;;;24.66;41.17;101408.34;5050351;28;20029;-59
2023/06/12 08:07:50;;;;;;;19.80;12.65;;;;;;;24.78;40.67;101399.59;5050331;28;20579;-59
2023/06/12 08:10:16;;;;;;;20.58;12.63;;;;;;;24.87;40.11;101408.56;5050022;28;20490;-58
2023/06/12 08:12:42;;;;;;;23.67;13.00;;;;;;;24.83;39.60;101399.22;5049772;28;20114;-59
2023/06/12 08:15:07;;;;;;;21.65;12.50;;;;;;;24.85;39.78;101401.66;5050395;28;20025;-59
2023/06/12 08:17:35;;;;;;;21.38;12.60;;;;;;;25.04;39.99;101400.59;5049184;28;20041;-59
2023/06/12 08:20:00;;;;;;;19.73;12.70;;;;;;;25.12;39.30;101395.81;5049106;28;20370;-59
2023/06/12 08:22:25;;;;;;;20.73;13.50;;;;;;;25.23;39.80;101393.84;5050140;28;20056;-59
2023/06/12 08:24:51;;;;;;;23.42;12.32;;;;;;;25.35;39.78;101395.53;5050918;28;20035;-58
2023/06/12 08:27:16;;;;;;;21.48;12.63;;;;;;;25.34;38.88;101399.59;5054024;28;20047;-58
2023/06/12 08:29:42;;;;;;;22.25;13.13;;;;;;;25.33;38.97;101400.78;5054029;28;20037;-58
2023/06/12 08:32:07;;;;;;;20.48;12.07;;;;;;;25.51;38.87;101398.06;5054128;28;20025;-58
2023/06/12 08:34:32;;;;;;;21.20;12.05;;;;;;;25.70;38.45;101397.75;5053970;28;20094;-58
2023/06/12 08:36:58;;;;;;;20.17;11.95;;;;;;;25.74;38.74;101403.44;5054058;28;20044;-59
2023/06/12 08:39:23;;;;;;;20.63;12.48;;;;;;;25.73;39.34;101395.34;5053990;28;20048;-58
2023/06/12 08:42:05;;;;;;;20.95;11.88;;;;;;;25.88;38.39;101399.06;5053910;28;20028;-58
2023/06/12 08:44:31;;;;;;;20.85;12.05;;;;;;;25.99;37.73;101391.41;5052595;28;20032;-58
2023/06/12 08:47:00;;;;;;;20.70;11.95;;;;;;;26.07;37.77;101389.41;5054040;28;20060;-58
2023/06/12 08:49:26;;;;;;;19.98;12.35;;;;;;;26.15;37.31;101394.72;5053855;28;20068;-58
2023/06/12 08:51:51;;;;;;;19.90;11.60;;;;;;;26.16;36.65;101389.88;5035433;28;20099;-58
2023/06/12 08:54:18;;;;;;;19.67;11.60;;;;;;;26.25;37.04;101390.28;5053439;28;20040;-58
2023/06/12 08:56:45;;;;;;;19.40;11.77;;;;;;;26.33;36.67;101390.31;5053715;28;20029;-58
2023/06/12 08:59:10;;;;;;;21.85;11.25;;;;;;;26.50;36.19;101388.72;5053423;28;20080;-58
2023/06/12 09:01:39;;;;;;;21.63;11.73;;;;;;;26.58;37.03;101379.78;5053312;28;20025;-58
2023/06/12 09:04:11;;;;;;;23.42;11.50;;;;;;;26.76;35.87;101391.16;5053169;28;20070;-58
2023/06/12 09:06:37;;;;;;;19.45;11.40;;;;;;;26.68;35.81;101386.69;5053096;28;20059;-58
2023/06/12 09:09:03;;;;;;;18.23;11.20;;;;;;;26.80;35.78;101381.84;5053020;28;20491;-58
2023/06/12 09:11:29;;;;;;;19.67;11.40;;;;;;;26.91;35.57;101379.81;5052733;28;20063;-58
2023/06/12 09:13:54;;;;;;;21.42;12.23;;;;;;;26.91;35.00;101383.47;5052623;28;20075;-58
2023/06/12 09:16:20;;;;;;;20.42;11.32;;;;;;;27.10;35.27;101381.41;5051440;28;20036;-58
2023/06/12 09:18:52;;;;;;;21.08;11.52;;;;;;;27.06;35.06;101381.41;5052676;28;20025;-58
2023/06/12 09:21:17;;;;;;;19.52;11.18;;;;;;;27.25;35.08;101373.69;5052417;28;20389;-58
2023/06/12 09:23:50;;;;;;;19.98;11.45;;;;;;;27.37;34.92;101378.09;5053115;28;20491;-59
2023/06/12 09:26:16;;;;;;;19.23;11.23;;;;;;;27.41;34.45;101367.53;5051334;28;20025;-59
2023/06/12 09:28:42;;;;;;;19.92;11.63;;;;;;;27.51;34.28;101365.91;5052629;28;20037;-58
2023/06/12 09:31:08;;;;;;;20.33;11.05;;;;;;;27.64;34.72;101372.75;5052703;28;20025;-59
2023/06/12 09:33:39;;;;;;;19.60;11.15;;;;;;;27.75;34.20;101369.88;5052691;28;20369;-59
2023/06/12 09:36:04;;;;;;;20.20;11.27;;;;;;;27.79;33.83;101375.53;5052410;28;20021;-59
2023/06/12 09:38:35;;;;;;;19.02;12.00;;;;;;;27.69;33.26;101375.19;5052630;28;20485;-59
2023/06/12 09:41:03;;;;;;;20.88;11.57;;;;;;;27.74;32.94;101370.28;5052528;28;20544;-58
2023/06/12 09:43:29;;;;;;;18.83;11.45;;;;;;;27.89;33.22;101368.16;5052534;28;20021;-59
2023/06/12 09:45:55;;;;;;;21.65;12.07;;;;;;;27.96;32.40;101374.63;5052524;28;20042;-59
2023/06/12 09:48:20;;;;;;;20.95;12.20;;;;;;;27.91;32.90;101368.56;5052263;28;20025;-57
2023/06/12 09:50:48;;;;;;;19.35;11.20;;;;;;;28.10;33.05;101362.41;5052120;28;20043;-59
2023/06/12 09:53:16;;;;;;;20.90;11.95;;;;;;;27.86;32.67;101379.16;5052062;28;20040;-57
2023/06/12 09:55:46;;;;;;;20.83;11.82;;;;;;;27.85;32.90;101373.88;5052411;28;20067;-57
2023/06/12 09:58:17;;;;;;;19.95;11.45;;;;;;;28.08;33.56;101375.41;5052106;28;20141;-59
2023/06/12 10:00:43;;;;;;;18.52;10.50;;;;;;;28.22;32.19;101368.81;5052232;28;20039;-58
2023/06/12 10:03:15;;;;;;;19.75;11.18;;;;;;;28.43;31.67;101365.00;5052126;28;20056;-58
2023/06/12 10:05:50;;;;;;;22.15;12.88;;;;;;;28.24;31.85;101363.53;5052213;28;20037;-57
2023/06/12 10:08:17;;;;;;;20.00;11.00;;;;;;;28.43;32.03;101365.84;5051995;28;20476;-59
2023/06/12 10:10:43;;;;;;;21.65;11.45;;;;;;;28.43;31.73;101380.06;5051927;28;20453;-59
2023/06/12 10:13:09;;;;;;;22.50;11.77;;;;;;;28.58;31.67;101368.56;5051685;28;20024;-59
2023/06/12 10:15:34;;;;;;;21.45;11.05;;;;;;;28.57;31.98;101370.59;5050384;28;20475;-59
2023/06/12 10:18:01;;;;;;;21.50;11.50;;;;;;;28.65;32.02;101368.50;5051694;28;20028;-58
2023/06/12 10:20:28;;;;;;;21.13;10.80;;;;;;;28.80;30.88;101363.50;5051844;28;20057;-58
2023/06/12 10:22:55;;;;;;;21.33;11.02;;;;;;;28.86;30.51;101355.31;5051689;28;20596;-58
2023/06/12 10:25:21;;;;;;;19.42;11.38;;;;;;;28.74;31.50;101351.75;5051797;28;20033;-58
2023/06/12 10:27:47;;;;;;;20.65;12.48;;;;;;;28.79;31.66;101348.47;5051554;28;20040;-59
2023/06/12 10:30:16;;;;;;;24.00;12.95;;;;;;;28.80;31.56;101354.97;5050152;28;20384;-58
2023/06/12 10:32:43;;;;;;;19.23;11.55;;;;;;;28.82;31.40;101354.53;5051029;28;20033;-57
2023/06/12 10:35:08;;;;;;;20.40;11.20;;;;;;;28.89;31.40;101348.78;5051267;28;20040;-58
2023/06/12 10:37:38;;;;;;;19.25;11.50;;;;;;;29.03;31.23;101360.03;5049825;28;20100;-58
2023/06/12 10:40:18;;;;;;;19.05;11.30;;;;;;;29.07;30.78;101354.28;5051498;28;20025;-58
2023/06/12 10:42:54;;;;;;;20.02;11.80;;;;;;;29.06;31.08;101352.66;5051534;28;20039;-58
2023/06/12 10:45:28;;;;;;;20.45;11.68;;;;;;;29.35;30.87;101341.00;5051304;28;20029;-59
2023/06/12 10:48:02;;;;;;;19.08;12.02;;;;;;;29.36;30.80;101334.06;5050753;28;20113;-60
2023/06/12 10:50:28;;;;;;;19.10;11.90;;;;;;;29.42;30.54;101350.28;5050903;28;20032;-59
2023/06/12 10:52:55;;;;;;;19.25;11.85;;;;;;;29.41;30.75;101333.59;5049357;28;20033;-59
2023/06/12 10:55:22;;;;;;;18.33;11.40;;;;;;;29.46;31.28;101338.03;5051259;28;20097;-59
2023/06/12 10:57:50;;;;;;;19.52;11.55;;;;;;;29.67;30.77;101334.09;5051039;28;20039;-59
2023/06/12 11:00:18;;;;;;;20.08;12.30;;;;;;;29.59;30.64;101336.22;5051008;28;20040;-59
2023/06/12 11:02:45;;;;;;;19.48;11.82;;;;;;;29.45;30.40;101340.06;5050856;28;20039;-59
2023/06/12 11:05:11;;;;;;;20.00;12.02;;;;;;;29.38;30.71;101332.38;5046369;28;20025;-59
2023/06/12 11:07:39;;;;;;;19.40;12.05;;;;;;;29.15;30.88;101329.41;5041578;28;20028;-59